Terminal Aerodrome Forecast
Issued by NWS

Home | Current Version | Previous Version | Text Only | Print | Product List | Glossary On
Versions: 1 2 3 4 5 6 7 8 9 10 11 12 13 14
000
FTUS42 KMHX 011700
TAFISO
TAF
KISO 011738Z 0118/0218 23007KT P6SM SCT050 SCT250
     FM020900 VRB03KT 3SM BR SCT250
     FM021200 25005KT P6SM SCT050
      AMD LTD TO CLD VIS AND WIND=

USA.gov is the U.S. government's official web portal to all federal, state and local government web resources and services.